sensor_id;sensor_type;location;lat;lon;timestamp;temperature;humidity
12223;DHT22;6174;49.058;8.524;2022-09-09T04:01:26;16.20;99.90
12223;DHT22;6174;49.058;8.524;2022-09-09T04:03:53;16.20;99.90
12223;DHT22;6174;49.058;8.524;2022-09-09T04:06:24;16.20;99.90
12223;DHT22;6174;49.058;8.524;2022-09-09T04:08:51;16.30;99.90
12223;DHT22;6174;49.058;8.524;2022-09-09T04:11:18;16.10;99.90
12223;DHT22;6174;49.058;8.524;2022-09-09T04:13:45;16.00;99.90
12223;DHT22;6174;49.058;8.524;2022-09-09T04:16:12;16.10;99.90
12223;DHT22;6174;49.058;8.524;2022-09-09T04:18:41;16.00;99.90
12223;DHT22;6174;49.058;8.524;2022-09-09T04:21:09;16.00;99.90
12223;DHT22;6174;49.058;8.524;2022-09-09T04:23:35;16.00;99.90
12223;DHT22;6174;49.058;8.524;2022-09-09T04:26:03;16.00;99.90
12223;DHT22;6174;49.058;8.524;2022-09-09T04:28:31;16.00;99.90
12223;DHT22;6174;49.058;8.524;2022-09-09T04:31:04;16.00;99.90
12223;DHT22;6174;49.058;8.524;2022-09-09T04:33:31;16.10;99.90
12223;DHT22;6174;49.058;8.524;2022-09-09T04:35:59;16.10;99.90
12223;DHT22;6174;49.058;8.524;2022-09-09T04:38:26;16.10;99.90
12223;DHT22;6174;49.058;8.524;2022-09-09T04:40:52;16.10;99.90
12223;DHT22;6174;49.058;8.524;2022-09-09T04:43:19;16.10;99.90
12223;DHT22;6174;49.058;8.524;2022-09-09T04:45:48;16.00;99.90
12223;DHT22;6174;49.058;8.524;2022-09-09T04:48:16;16.00;99.90
12223;DHT22;6174;49.058;8.524;2022-09-09T04:50:43;16.10;99.90
12223;DHT22;6174;49.058;8.524;2022-09-09T04:53:11;16.10;99.90
12223;DHT22;6174;49.058;8.524;2022-09-09T04:55:38;16.10;99.90
12223;DHT22;6174;49.058;8.524;2022-09-09T04:58:05;16.20;99.90
12223;DHT22;6174;49.058;8.524;2022-09-09T05:00:32;16.20;99.90
12223;DHT22;6174;49.058;8.524;2022-09-09T05:03:02;16.20;99.90
12223;DHT22;6174;49.058;8.524;2022-09-09T05:05:29;16.20;99.90
12223;DHT22;6174;49.058;8.524;2022-09-09T05:08:01;16.30;99.90
12223;DHT22;6174;49.058;8.524;2022-09-09T05:10:29;16.30;99.90
12223;DHT22;6174;49.058;8.524;2022-09-09T05:12:56;16.30;99.90
12223;DHT22;6174;49.058;8.524;2022-09-09T05:15:23;16.30;99.90
12223;DHT22;6174;49.058;8.524;2022-09-09T05:17:50;16.30;99.90
12223;DHT22;6174;49.058;8.524;2022-09-09T05:20:18;16.30;99.90
12223;DHT22;6174;49.058;8.524;2022-09-09T05:22:45;16.30;99.90
12223;DHT22;6174;49.058;8.524;2022-09-09T05:25:12;16.30;99.90
12223;DHT22;6174;49.058;8.524;2022-09-09T05:27:40;16.40;99.90
12223;DHT22;6174;49.058;8.524;2022-09-09T05:30:08;16.40;99.90
12223;DHT22;6174;49.058;8.524;2022-09-09T05:32:34;16.40;99.90
12223;DHT22;6174;49.058;8.524;2022-09-09T05:35:01;16.40;99.90
12223;DHT22;6174;49.058;8.524;2022-09-09T05:37:28;16.40;99.90
12223;DHT22;6174;49.058;8.524;2022-09-09T05:39:56;16.40;99.90
12223;DHT22;6174;49.058;8.524;2022-09-09T05:42:23;16.50;99.90
12223;DHT22;6174;49.058;8.524;2022-09-09T05:44:51;16.50;99.90
12223;DHT22;6174;49.058;8.524;2022-09-09T05:47:19;16.60;99.90
12223;DHT22;6174;49.058;8.524;2022-09-09T05:49:46;16.60;99.90
12223;DHT22;6174;49.058;8.524;2022-09-09T05:52:13;16.60;99.90
12223;DHT22;6174;49.058;8.524;2022-09-09T05:54:40;16.70;99.90
12223;DHT22;6174;49.058;8.524;2022-09-09T05:57:08;16.70;99.90
12223;DHT22;6174;49.058;8.524;2022-09-09T05:59:35;16.70;99.90
12223;DHT22;6174;49.058;8.524;2022-09-09T06:02:03;16.80;99.90
12223;DHT22;6174;49.058;8.524;2022-09-09T06:04:29;16.80;99.90
12223;DHT22;6174;49.058;8.524;2022-09-09T06:06:56;16.80;99.90
12223;DHT22;6174;49.058;8.524;2022-09-09T06:09:23;16.90;99.90
12223;DHT22;6174;49.058;8.524;2022-09-09T06:11:50;17.00;99.90
12223;DHT22;6174;49.058;8.524;2022-09-09T06:14:16;17.10;99.90
12223;DHT22;6174;49.058;8.524;2022-09-09T06:16:44;17.20;99.90
12223;DHT22;6174;49.058;8.524;2022-09-09T06:19:12;17.30;99.90
12223;DHT22;6174;49.058;8.524;2022-09-09T06:21:39;17.50;99.90
12223;DHT22;6174;49.058;8.524;2022-09-09T06:24:08;17.60;99.90
12223;DHT22;6174;49.058;8.524;2022-09-09T06:26:36;17.70;99.90
12223;DHT22;6174;49.058;8.524;2022-09-09T06:29:03;17.80;99.90
12223;DHT22;6174;49.058;8.524;2022-09-09T06:31:32;17.70;99.90
12223;DHT22;6174;49.058;8.524;2022-09-09T06:34:00;17.80;99.90
12223;DHT22;6174;49.058;8.524;2022-09-09T06:36:30;17.70;99.90
12223;DHT22;6174;49.058;8.524;2022-09-09T06:38:58;17.80;99.90
12223;DHT22;6174;49.058;8.524;2022-09-09T06:41:27;17.80;99.90
12223;DHT22;6174;49.058;8.524;2022-09-09T06:43:54;17.80;99.90
12223;DHT22;6174;49.058;8.524;2022-09-09T06:46:22;17.80;99.90
12223;DHT22;6174;49.058;8.524;2022-09-09T06:48:52;17.80;99.90
12223;DHT22;6174;49.058;8.524;2022-09-09T06:51:22;17.80;99.90
12223;DHT22;6174;49.058;8.524;2022-09-09T06:53:52;17.90;99.90
12223;DHT22;6174;49.058;8.524;2022-09-09T06:56:21;18.00;99.90
12223;DHT22;6174;49.058;8.524;2022-09-09T06:58:49;18.10;99.90
12223;DHT22;6174;49.058;8.524;2022-09-09T07:01:19;18.30;99.90
12223;DHT22;6174;49.058;8.524;2022-09-09T07:03:47;18.30;99.90
12223;DHT22;6174;49.058;8.524;2022-09-09T07:06:16;18.40;99.90
12223;DHT22;6174;49.058;8.524;2022-09-09T07:08:47;18.50;99.90
12223;DHT22;6174;49.058;8.524;2022-09-09T07:11:16;18.50;99.90
12223;DHT22;6174;49.058;8.524;2022-09-09T07:13:42;18.40;99.90
12223;DHT22;6174;49.058;8.524;2022-09-09T07:16:10;18.30;99.90
12223;DHT22;6174;49.058;8.524;2022-09-09T07:18:38;18.30;99.90
12223;DHT22;6174;49.058;8.524;2022-09-09T07:21:05;18.30;99.90
12223;DHT22;6174;49.058;8.524;2022-09-09T07:23:33;18.30;99.90
12223;DHT22;6174;49.058;8.524;2022-09-09T07:26:02;18.50;99.90
12223;DHT22;6174;49.058;8.524;2022-09-09T07:28:30;18.60;99.90
12223;DHT22;6174;49.058;8.524;2022-09-09T07:30:58;18.60;99.90
12223;DHT22;6174;49.058;8.524;2022-09-09T07:33:27;18.70;99.90
12223;DHT22;6174;49.058;8.524;2022-09-09T07:36:02;18.70;99.90
12223;DHT22;6174;49.058;8.524;2022-09-09T07:38:30;18.80;99.90
12223;DHT22;6174;49.058;8.524;2022-09-09T07:41:03;18.90;99.90
12223;DHT22;6174;49.058;8.524;2022-09-09T07:43:32;18.90;99.90
12223;DHT22;6174;49.058;8.524;2022-09-09T07:45:59;18.80;99.90
12223;DHT22;6174;49.058;8.524;2022-09-09T07:48:27;18.70;99.90
12223;DHT22;6174;49.058;8.524;2022-09-09T07:51:04;18.60;99.90
12223;DHT22;6174;49.058;8.524;2022-09-09T07:53:31;18.60;99.90
12223;DHT22;6174;49.058;8.524;2022-09-09T07:56:03;18.60;99.90
12223;DHT22;6174;49.058;8.524;2022-09-09T07:58:31;18.50;99.90
12223;DHT22;6174;49.058;8.524;2022-09-09T08:00:58;18.50;99.90
12223;DHT22;6174;49.058;8.524;2022-09-09T08:03:24;18.60;99.90
12223;DHT22;6174;49.058;8.524;2022-09-09T08:05:52;18.60;99.90
12223;DHT22;6174;49.058;8.524;2022-09-09T08:08:18;18.60;99.90
12223;DHT22;6174;49.058;8.524;2022-09-09T08:10:45;18.60;99.90
12223;DHT22;6174;49.058;8.524;2022-09-09T08:13:12;18.70;99.90
12223;DHT22;6174;49.058;8.524;2022-09-09T08:15:41;18.80;99.90
12223;DHT22;6174;49.058;8.524;2022-09-09T08:18:08;18.90;99.90
12223;DHT22;6174;49.058;8.524;2022-09-09T08:20:36;19.00;99.90
12223;DHT22;6174;49.058;8.524;2022-09-09T08:23:03;19.20;99.90
12223;DHT22;6174;49.058;8.524;2022-09-09T08:25:30;19.30;99.90
12223;DHT22;6174;49.058;8.524;2022-09-09T08:27:57;19.50;99.90
12223;DHT22;6174;49.058;8.524;2022-09-09T08:30:23;19.60;99.90
12223;DHT22;6174;49.058;8.524;2022-09-09T08:32:51;19.70;99.90
12223;DHT22;6174;49.058;8.524;2022-09-09T08:35:18;19.80;99.90
12223;DHT22;6174;49.058;8.524;2022-09-09T08:37:45;19.80;99.90
12223;DHT22;6174;49.058;8.524;2022-09-09T08:40:18;20.00;99.90
12223;DHT22;6174;49.058;8.524;2022-09-09T08:42:49;20.00;99.90
12223;DHT22;6174;49.058;8.524;2022-09-09T08:45:25;20.00;99.90
12223;DHT22;6174;49.058;8.524;2022-09-09T08:48:13;19.80;99.90
12223;DHT22;6174;49.058;8.524;2022-09-09T08:50:44;19.70;99.90
12223;DHT22;6174;49.058;8.524;2022-09-09T08:53:17;19.60;99.90
12223;DHT22;6174;49.058;8.524;2022-09-09T08:55:47;19.50;99.90
12223;DHT22;6174;49.058;8.524;2022-09-09T08:58:16;19.40;99.90
12223;DHT22;6174;49.058;8.524;2022-09-09T09:00:58;19.40;99.90
12223;DHT22;6174;49.058;8.524;2022-09-09T09:03:36;19.40;99.90
12223;DHT22;6174;49.058;8.524;2022-09-09T09:06:17;19.40;99.90
12223;DHT22;6174;49.058;8.524;2022-09-09T09:08:53;19.40;99.90
12223;DHT22;6174;49.058;8.524;2022-09-09T09:11:22;19.40;99.90
12223;DHT22;6174;49.058;8.524;2022-09-09T09:13:54;19.40;99.90
12223;DHT22;6174;49.058;8.524;2022-09-09T09:16:29;19.30;99.90
12223;DHT22;6174;49.058;8.524;2022-09-09T09:18:59;19.30;99.90
12223;DHT22;6174;49.058;8.524;2022-09-09T09:21:32;19.20;99.90
12223;DHT22;6174;49.058;8.524;2022-09-09T09:24:01;19.00;99.90
12223;DHT22;6174;49.058;8.524;2022-09-09T09:26:31;19.00;99.90
12223;DHT22;6174;49.058;8.524;2022-09-09T09:28:59;18.90;99.90
12223;DHT22;6174;49.058;8.524;2022-09-09T09:31:28;18.80;99.90
12223;DHT22;6174;49.058;8.524;2022-09-09T09:33:56;18.80;99.90
12223;DHT22;6174;49.058;8.524;2022-09-09T09:36:34;18.90;99.90
12223;DHT22;6174;49.058;8.524;2022-09-09T09:39:02;19.00;99.90
12223;DHT22;6174;49.058;8.524;2022-09-09T09:41:32;18.90;99.90
12223;DHT22;6174;49.058;8.524;2022-09-09T09:44:00;18.90;99.90
12223;DHT22;6174;49.058;8.524;2022-09-09T09:46:28;18.90;99.90
12223;DHT22;6174;49.058;8.524;2022-09-09T09:48:59;18.90;99.90
12223;DHT22;6174;49.058;8.524;2022-09-09T09:51:29;19.00;99.90
12223;DHT22;6174;49.058;8.524;2022-09-09T09:54:14;19.20;99.90
12223;DHT22;6174;49.058;8.524;2022-09-09T09:56:42;19.30;99.90
12223;DHT22;6174;49.058;8.524;2022-09-09T09:59:20;19.40;99.90
12223;DHT22;6174;49.058;8.524;2022-09-09T10:01:47;19.60;99.90
12223;DHT22;6174;49.058;8.524;2022-09-09T10:04:16;19.60;99.90
12223;DHT22;6174;49.058;8.524;2022-09-09T10:06:45;19.70;99.30
12223;DHT22;6174;49.058;8.524;2022-09-09T10:09:21;19.90;96.80
12223;DHT22;6174;49.058;8.524;2022-09-09T10:11:54;20.00;95.50
12223;DHT22;6174;49.058;8.524;2022-09-09T10:14:24;20.00;95.10
12223;DHT22;6174;49.058;8.524;2022-09-09T10:17:04;20.10;95.80
12223;DHT22;6174;49.058;8.524;2022-09-09T10:19:36;20.20;95.40
12223;DHT22;6174;49.058;8.524;2022-09-09T10:22:15;20.30;95.80
12223;DHT22;6174;49.058;8.524;2022-09-09T10:25:07;20.40;96.30
12223;DHT22;6174;49.058;8.524;2022-09-09T10:27:45;20.50;95.00
12223;DHT22;6174;49.058;8.524;2022-09-09T10:30:18;20.60;95.00
12223;DHT22;6174;49.058;8.524;2022-09-09T10:32:48;20.60;93.60
12223;DHT22;6174;49.058;8.524;2022-09-09T10:35:26;20.60;93.20
12223;DHT22;6174;49.058;8.524;2022-09-09T10:38:08;20.70;94.00
12223;DHT22;6174;49.058;8.524;2022-09-09T10:40:39;20.80;93.30
12223;DHT22;6174;49.058;8.524;2022-09-09T10:43:20;20.70;92.30
12223;DHT22;6174;49.058;8.524;2022-09-09T10:45:55;20.80;92.20
12223;DHT22;6174;49.058;8.524;2022-09-09T10:48:41;20.70;93.10
12223;DHT22;6174;49.058;8.524;2022-09-09T10:51:23;20.70;93.40
12223;DHT22;6174;49.058;8.524;2022-09-09T10:56:44;20.70;92.90
12223;DHT22;6174;49.058;8.524;2022-09-09T10:59:17;20.80;93.20
12223;DHT22;6174;49.058;8.524;2022-09-09T11:01:53;20.90;91.70
12223;DHT22;6174;49.058;8.524;2022-09-09T11:04:25;20.90;92.10
12223;DHT22;6174;49.058;8.524;2022-09-09T11:06:55;21.00;91.60
12223;DHT22;6174;49.058;8.524;2022-09-09T11:09:26;21.10;90.40
12223;DHT22;6174;49.058;8.524;2022-09-09T11:11:54;21.20;91.20
12223;DHT22;6174;49.058;8.524;2022-09-09T11:14:26;21.20;90.40
12223;DHT22;6174;49.058;8.524;2022-09-09T11:16:58;21.30;88.30
12223;DHT22;6174;49.058;8.524;2022-09-09T11:19:29;21.30;90.20
12223;DHT22;6174;49.058;8.524;2022-09-09T11:21:59;21.40;90.60
12223;DHT22;6174;49.058;8.524;2022-09-09T11:24:32;21.50;90.00
12223;DHT22;6174;49.058;8.524;2022-09-09T11:27:05;21.60;89.60
12223;DHT22;6174;49.058;8.524;2022-09-09T11:30:02;21.70;88.40
12223;DHT22;6174;49.058;8.524;2022-09-09T11:32:47;21.80;89.10
12223;DHT22;6174;49.058;8.524;2022-09-09T11:35:29;21.80;87.70
12223;DHT22;6174;49.058;8.524;2022-09-09T11:38:16;21.80;90.10
12223;DHT22;6174;49.058;8.524;2022-09-09T11:40:46;21.80;86.50
12223;DHT22;6174;49.058;8.524;2022-09-09T11:43:15;21.70;87.50
12223;DHT22;6174;49.058;8.524;2022-09-09T11:45:51;21.80;86.90
12223;DHT22;6174;49.058;8.524;2022-09-09T11:48:23;21.80;85.10
12223;DHT22;6174;49.058;8.524;2022-09-09T11:50:58;21.80;84.30
12223;DHT22;6174;49.058;8.524;2022-09-09T11:53:25;21.80;83.40
12223;DHT22;6174;49.058;8.524;2022-09-09T11:56:06;21.80;84.60
12223;DHT22;6174;49.058;8.524;2022-09-09T11:58:37;21.90;87.60
12223;DHT22;6174;49.058;8.524;2022-09-09T12:01:25;21.90;86.70
12223;DHT22;6174;49.058;8.524;2022-09-09T12:04:17;21.90;85.10
12223;DHT22;6174;49.058;8.524;2022-09-09T12:06:46;21.90;84.40
12223;DHT22;6174;49.058;8.524;2022-09-09T12:09:22;21.90;86.60
12223;DHT22;6174;49.058;8.524;2022-09-09T12:11:51;22.00;87.30
12223;DHT22;6174;49.058;8.524;2022-09-09T12:14:20;22.20;86.00
12223;DHT22;6174;49.058;8.524;2022-09-09T12:16:48;22.20;84.20
12223;DHT22;6174;49.058;8.524;2022-09-09T12:19:18;22.20;83.60
12223;DHT22;6174;49.058;8.524;2022-09-09T12:21:51;22.20;82.40
12223;DHT22;6174;49.058;8.524;2022-09-09T12:24:25;22.30;82.90
12223;DHT22;6174;49.058;8.524;2022-09-09T12:26:58;22.30;82.90
12223;DHT22;6174;49.058;8.524;2022-09-09T12:29:29;22.60;82.50
12223;DHT22;6174;49.058;8.524;2022-09-09T12:32:06;22.80;80.20
12223;DHT22;6174;49.058;8.524;2022-09-09T12:34:38;22.80;82.60
12223;DHT22;6174;49.058;8.524;2022-09-09T12:37:14;22.80;82.10
12223;DHT22;6174;49.058;8.524;2022-09-09T12:39:45;22.70;79.90
12223;DHT22;6174;49.058;8.524;2022-09-09T12:42:18;22.50;79.40
12223;DHT22;6174;49.058;8.524;2022-09-09T12:44:56;22.30;81.30
12223;DHT22;6174;49.058;8.524;2022-09-09T12:47:28;22.10;83.30
12223;DHT22;6174;49.058;8.524;2022-09-09T12:49:57;22.00;83.00
12223;DHT22;6174;49.058;8.524;2022-09-09T12:52:27;21.90;82.30
12223;DHT22;6174;49.058;8.524;2022-09-09T12:54:57;21.80;85.80
12223;DHT22;6174;49.058;8.524;2022-09-09T12:57:33;21.60;86.80
12223;DHT22;6174;49.058;8.524;2022-09-09T13:00:07;21.60;88.10
12223;DHT22;6174;49.058;8.524;2022-09-09T13:02:45;21.40;87.50
12223;DHT22;6174;49.058;8.524;2022-09-09T13:05:15;21.30;89.70
12223;DHT22;6174;49.058;8.524;2022-09-09T13:07:43;21.00;91.40
12223;DHT22;6174;49.058;8.524;2022-09-09T13:10:11;20.80;94.40
12223;DHT22;6174;49.058;8.524;2022-09-09T13:12:40;20.60;96.80
12223;DHT22;6174;49.058;8.524;2022-09-09T13:15:16;20.50;98.30
12223;DHT22;6174;49.058;8.524;2022-09-09T13:17:53;20.50;97.20
12223;DHT22;6174;49.058;8.524;2022-09-09T13:20:21;20.50;91.30
12223;DHT22;6174;49.058;8.524;2022-09-09T13:22:49;20.50;92.50
12223;DHT22;6174;49.058;8.524;2022-09-09T13:25:20;20.40;93.60
12223;DHT22;6174;49.058;8.524;2022-09-09T13:27:59;20.30;97.80
12223;DHT22;6174;49.058;8.524;2022-09-09T13:30:29;20.10;99.90
12223;DHT22;6174;49.058;8.524;2022-09-09T13:33:02;19.90;99.90
12223;DHT22;6174;49.058;8.524;2022-09-09T13:35:29;19.70;99.90
12223;DHT22;6174;49.058;8.524;2022-09-09T13:37:56;19.60;99.90
12223;DHT22;6174;49.058;8.524;2022-09-09T13:40:24;19.60;99.90
12223;DHT22;6174;49.058;8.524;2022-09-09T13:42:53;19.70;99.90
12223;DHT22;6174;49.058;8.524;2022-09-09T13:45:24;19.70;99.90
12223;DHT22;6174;49.058;8.524;2022-09-09T13:47:52;19.80;99.90
12223;DHT22;6174;49.058;8.524;2022-09-09T13:50:21;20.00;99.90
12223;DHT22;6174;49.058;8.524;2022-09-09T13:52:49;20.10;99.90
12223;DHT22;6174;49.058;8.524;2022-09-09T13:55:17;20.20;99.90
12223;DHT22;6174;49.058;8.524;2022-09-09T13:57:51;20.30;98.50
12223;DHT22;6174;49.058;8.524;2022-09-09T14:00:18;20.30;98.80
12223;DHT22;6174;49.058;8.524;2022-09-09T14:02:47;20.30;99.20
12223;DHT22;6174;49.058;8.524;2022-09-09T14:05:14;20.30;97.90
12223;DHT22;6174;49.058;8.524;2022-09-09T14:07:41;20.40;99.20
12223;DHT22;6174;49.058;8.524;2022-09-09T14:10:09;20.30;99.90
12223;DHT22;6174;49.058;8.524;2022-09-09T14:12:36;20.30;99.90
12223;DHT22;6174;49.058;8.524;2022-09-09T14:15:04;20.30;99.40
12223;DHT22;6174;49.058;8.524;2022-09-09T14:17:32;20.30;99.90
12223;DHT22;6174;49.058;8.524;2022-09-09T14:20:01;20.30;99.90
12223;DHT22;6174;49.058;8.524;2022-09-09T14:22:28;20.20;99.90
12223;DHT22;6174;49.058;8.524;2022-09-09T14:24:55;20.20;99.90
12223;DHT22;6174;49.058;8.524;2022-09-09T14:27:23;20.20;99.90
12223;DHT22;6174;49.058;8.524;2022-09-09T14:29:51;20.30;99.90
12223;DHT22;6174;49.058;8.524;2022-09-09T14:32:18;20.10;99.90
12223;DHT22;6174;49.058;8.524;2022-09-09T14:34:45;20.00;99.90
12223;DHT22;6174;49.058;8.524;2022-09-09T14:37:14;19.70;99.90
12223;DHT22;6174;49.058;8.524;2022-09-09T14:39:41;19.60;99.90
12223;DHT22;6174;49.058;8.524;2022-09-09T14:42:09;19.30;99.90
12223;DHT22;6174;49.058;8.524;2022-09-09T14:44:36;19.20;99.90
12223;DHT22;6174;49.058;8.524;2022-09-09T14:47:04;19.00;99.90
12223;DHT22;6174;49.058;8.524;2022-09-09T14:49:30;18.70;99.90
12223;DHT22;6174;49.058;8.524;2022-09-09T14:51:57;18.60;99.90
12223;DHT22;6174;49.058;8.524;2022-09-09T14:54:25;18.40;99.90
12223;DHT22;6174;49.058;8.524;2022-09-09T14:56:53;18.30;99.90
12223;DHT22;6174;49.058;8.524;2022-09-09T14:59:21;18.20;99.90
12223;DHT22;6174;49.058;8.524;2022-09-09T15:01:48;18.10;99.90
12223;DHT22;6174;49.058;8.524;2022-09-09T15:04:15;17.90;99.90
12223;DHT22;6174;49.058;8.524;2022-09-09T15:06:42;17.80;99.90
12223;DHT22;6174;49.058;8.524;2022-09-09T15:09:12;17.60;99.90
12223;DHT22;6174;49.058;8.524;2022-09-09T15:11:40;17.40;99.90
12223;DHT22;6174;49.058;8.524;2022-09-09T15:14:08;17.30;99.90
12223;DHT22;6174;49.058;8.524;2022-09-09T15:16:35;17.30;99.90
12223;DHT22;6174;49.058;8.524;2022-09-09T15:19:03;17.20;99.90
12223;DHT22;6174;49.058;8.524;2022-09-09T15:21:31;17.20;99.90
12223;DHT22;6174;49.058;8.524;2022-09-09T15:23:58;17.30;99.90
12223;DHT22;6174;49.058;8.524;2022-09-09T15:26:26;17.50;99.90
12223;DHT22;6174;49.058;8.524;2022-09-09T15:28:54;17.50;99.90
12223;DHT22;6174;49.058;8.524;2022-09-09T15:31:23;17.60;99.90
12223;DHT22;6174;49.058;8.524;2022-09-09T15:33:50;17.60;99.90
12223;DHT22;6174;49.058;8.524;2022-09-09T15:36:18;17.70;99.90
12223;DHT22;6174;49.058;8.524;2022-09-09T15:38:46;17.70;99.90
12223;DHT22;6174;49.058;8.524;2022-09-09T15:41:13;17.80;99.90
12223;DHT22;6174;49.058;8.524;2022-09-09T15:43:43;17.80;99.90
12223;DHT22;6174;49.058;8.524;2022-09-09T15:46:28;17.90;99.90
12223;DHT22;6174;49.058;8.524;2022-09-09T15:48:56;17.90;99.90
12223;DHT22;6174;49.058;8.524;2022-09-09T15:51:24;18.00;99.90
12223;DHT22;6174;49.058;8.524;2022-09-09T15:53:55;18.00;99.90
12223;DHT22;6174;49.058;8.524;2022-09-09T15:56:22;18.10;99.90
12223;DHT22;6174;49.058;8.524;2022-09-09T15:58:49;18.10;99.90
12223;DHT22;6174;49.058;8.524;2022-09-09T16:01:17;18.10;99.90
12223;DHT22;6174;49.058;8.524;2022-09-09T16:03:46;18.10;99.90
12223;DHT22;6174;49.058;8.524;2022-09-09T16:06:14;18.00;99.90
12223;DHT22;6174;49.058;8.524;2022-09-09T16:08:44;18.00;99.90
12223;DHT22;6174;49.058;8.524;2022-09-09T16:11:13;18.00;99.90
12223;DHT22;6174;49.058;8.524;2022-09-09T16:13:42;17.90;99.90
12223;DHT22;6174;49.058;8.524;2022-09-09T16:16:10;17.90;99.90
12223;DHT22;6174;49.058;8.524;2022-09-09T16:18:39;17.80;99.90
12223;DHT22;6174;49.058;8.524;2022-09-09T16:21:08;17.80;99.90
12223;DHT22;6174;49.058;8.524;2022-09-09T16:23:37;17.70;99.90
12223;DHT22;6174;49.058;8.524;2022-09-09T16:26:04;17.70;99.90
12223;DHT22;6174;49.058;8.524;2022-09-09T16:28:31;17.60;99.90
12223;DHT22;6174;49.058;8.524;2022-09-09T16:30:58;17.50;99.90
12223;DHT22;6174;49.058;8.524;2022-09-09T16:33:24;17.50;99.90
12223;DHT22;6174;49.058;8.524;2022-09-09T16:35:52;17.40;99.90
12223;DHT22;6174;49.058;8.524;2022-09-09T16:38:20;17.40;99.90
12223;DHT22;6174;49.058;8.524;2022-09-09T16:40:46;17.40;99.90
12223;DHT22;6174;49.058;8.524;2022-09-09T16:43:15;17.30;99.90
12223;DHT22;6174;49.058;8.524;2022-09-09T16:45:42;17.20;99.90
12223;DHT22;6174;49.058;8.524;2022-09-09T16:48:10;17.20;99.90
12223;DHT22;6174;49.058;8.524;2022-09-09T16:50:37;17.10;99.90
12223;DHT22;6174;49.058;8.524;2022-09-09T16:53:04;17.10;99.90
12223;DHT22;6174;49.058;8.524;2022-09-09T16:55:39;17.20;99.90
12223;DHT22;6174;49.058;8.524;2022-09-09T16:58:07;17.20;99.90
12223;DHT22;6174;49.058;8.524;2022-09-09T17:00:34;17.10;99.90
12223;DHT22;6174;49.058;8.524;2022-09-09T17:03:01;17.10;99.90
12223;DHT22;6174;49.058;8.524;2022-09-09T17:05:28;17.00;99.90
12223;DHT22;6174;49.058;8.524;2022-09-09T17:07:55;16.90;99.90
12223;DHT22;6174;49.058;8.524;2022-09-09T17:10:23;16.90;99.90
12223;DHT22;6174;49.058;8.524;2022-09-09T17:12:51;16.90;99.90
12223;DHT22;6174;49.058;8.524;2022-09-09T17:15:18;16.90;99.90
12223;DHT22;6174;49.058;8.524;2022-09-09T17:17:46;17.00;99.90
12223;DHT22;6174;49.058;8.524;2022-09-09T17:20:15;17.00;99.90
12223;DHT22;6174;49.058;8.524;2022-09-09T17:22:42;17.00;99.90
12223;DHT22;6174;49.058;8.524;2022-09-09T17:25:09;17.00;99.90
12223;DHT22;6174;49.058;8.524;2022-09-09T17:27:36;17.00;99.90
12223;DHT22;6174;49.058;8.524;2022-09-09T17:30:05;17.00;99.90
12223;DHT22;6174;49.058;8.524;2022-09-09T17:32:32;16.90;99.90
12223;DHT22;6174;49.058;8.524;2022-09-09T17:34:59;16.80;99.90
12223;DHT22;6174;49.058;8.524;2022-09-09T17:37:25;16.80;99.90
12223;DHT22;6174;49.058;8.524;2022-09-09T17:39:52;16.80;99.90
12223;DHT22;6174;49.058;8.524;2022-09-09T17:42:19;16.80;99.90
12223;DHT22;6174;49.058;8.524;2022-09-09T17:44:45;16.80;99.90
12223;DHT22;6174;49.058;8.524;2022-09-09T17:47:14;16.70;99.90
12223;DHT22;6174;49.058;8.524;2022-09-09T17:49:40;16.70;99.90
12223;DHT22;6174;49.058;8.524;2022-09-09T17:52:07;16.70;99.90
12223;DHT22;6174;49.058;8.524;2022-09-09T17:54:34;16.60;99.90
12223;DHT22;6174;49.058;8.524;2022-09-09T17:57:00;16.60;99.90
12223;DHT22;6174;49.058;8.524;2022-09-09T17:59:27;16.60;99.90
12223;DHT22;6174;49.058;8.524;2022-09-09T18:01:54;16.50;99.90
12223;DHT22;6174;49.058;8.524;2022-09-09T18:04:23;16.50;99.90
12223;DHT22;6174;49.058;8.524;2022-09-09T18:06:51;16.50;99.90
12223;DHT22;6174;49.058;8.524;2022-09-09T18:09:21;16.40;99.90
12223;DHT22;6174;49.058;8.524;2022-09-09T18:11:50;16.60;99.90
12223;DHT22;6174;49.058;8.524;2022-09-09T18:14:21;16.40;99.90
12223;DHT22;6174;49.058;8.524;2022-09-09T18:16:49;16.40;99.90
12223;DHT22;6174;49.058;8.524;2022-09-09T18:19:19;16.40;99.90
12223;DHT22;6174;49.058;8.524;2022-09-09T18:21:57;16.40;99.90
12223;DHT22;6174;49.058;8.524;2022-09-09T18:24:24;16.40;99.90
12223;DHT22;6174;49.058;8.524;2022-09-09T18:26:51;16.30;99.90
12223;DHT22;6174;49.058;8.524;2022-09-09T18:29:20;16.40;99.90
12223;DHT22;6174;49.058;8.524;2022-09-09T18:31:50;16.30;99.90
12223;DHT22;6174;49.058;8.524;2022-09-09T18:34:19;16.40;99.90
12223;DHT22;6174;49.058;8.524;2022-09-09T18:36:49;16.10;99.90
12223;DHT22;6174;49.058;8.524;2022-09-09T18:39:19;16.30;99.90
12223;DHT22;6174;49.058;8.524;2022-09-09T18:41:47;16.50;99.90
12223;DHT22;6174;49.058;8.524;2022-09-09T18:44:18;16.30;99.90
12223;DHT22;6174;49.058;8.524;2022-09-09T18:46:45;16.30;99.90
12223;DHT22;6174;49.058;8.524;2022-09-09T18:49:13;16.20;99.90
12223;DHT22;6174;49.058;8.524;2022-09-09T18:51:40;16.20;99.90
12223;DHT22;6174;49.058;8.524;2022-09-09T18:54:11;16.20;99.90
12223;DHT22;6174;49.058;8.524;2022-09-09T18:56:38;16.20;99.90
12223;DHT22;6174;49.058;8.524;2022-09-09T18:59:08;16.20;99.90
12223;DHT22;6174;49.058;8.524;2022-09-09T19:01:36;16.10;99.90
12223;DHT22;6174;49.058;8.524;2022-09-09T19:04:04;16.30;99.90
12223;DHT22;6174;49.058;8.524;2022-09-09T19:06:33;16.20;99.90
12223;DHT22;6174;49.058;8.524;2022-09-09T19:09:00;16.40;99.90
12223;DHT22;6174;49.058;8.524;2022-09-09T19:11:28;16.20;99.90
12223;DHT22;6174;49.058;8.524;2022-09-09T19:13:56;16.30;99.90
12223;DHT22;6174;49.058;8.524;2022-09-09T19:16:25;16.30;99.90
12223;DHT22;6174;49.058;8.524;2022-09-09T19:18:54;16.40;99.90
12223;DHT22;6174;49.058;8.524;2022-09-09T19:21:23;16.20;99.90
12223;DHT22;6174;49.058;8.524;2022-09-09T19:23:54;16.20;99.90
12223;DHT22;6174;49.058;8.524;2022-09-09T19:26:25;16.20;99.90
12223;DHT22;6174;49.058;8.524;2022-09-09T19:28:53;16.20;99.90
12223;DHT22;6174;49.058;8.524;2022-09-09T19:31:20;16.10;99.90
12223;DHT22;6174;49.058;8.524;2022-09-09T19:33:48;16.20;99.90
12223;DHT22;6174;49.058;8.524;2022-09-09T19:36:17;16.20;99.90
12223;DHT22;6174;49.058;8.524;2022-09-09T19:38:45;16.30;99.90
12223;DHT22;6174;49.058;8.524;2022-09-09T19:41:14;16.30;99.90
12223;DHT22;6174;49.058;8.524;2022-09-09T19:43:42;16.30;99.90
12223;DHT22;6174;49.058;8.524;2022-09-09T19:46:11;16.40;99.90
12223;DHT22;6174;49.058;8.524;2022-09-09T19:48:40;16.50;99.90
12223;DHT22;6174;49.058;8.524;2022-09-09T19:51:11;16.40;99.90
12223;DHT22;6174;49.058;8.524;2022-09-09T19:53:40;16.40;99.90
12223;DHT22;6174;49.058;8.524;2022-09-09T19:56:07;16.30;99.90
12223;DHT22;6174;49.058;8.524;2022-09-09T19:58:35;16.30;99.90
12223;DHT22;6174;49.058;8.524;2022-09-09T20:01:06;16.40;99.90
12223;DHT22;6174;49.058;8.524;2022-09-09T20:03:35;16.40;99.90